ADDS METAR Data INFO
IDs: Format: Raw Decoded Include TAF

Data at: 0748 UTC 20 Feb 2018

KDWX 200735Z AUTO 25004KT 5SM HZ OVC032 M19/M21 A2976 RMK AO2 T11861212
KDWX 200715Z AUTO 24004KT 5SM HZ OVC030 M18/M21 A2974 RMK AO2 T11831210
KDWX 200655Z AUTO 26003KT 4SM -SN OVC030 M18/M21 A2973 RMK AO2 T11781206 401051228
KDWX 200635Z AUTO 24003KT 3SM -SN OVC028 M18/M20 A2972 RMK AO2 T11761202
KDWX 200615Z AUTO 25004KT 2 1/2SM -SN BKN020 OVC026 M17/M20 A2971 RMK AO2 T11751202
KDWX 200555Z AUTO 25003KT 2 1/2SM -SN OVC018 M17/M20 A2971 RMK AO2 T11751202 10105 21228
KDWX 200535Z AUTO 26004KT 1 3/4SM -SN OVC016 M17/M20 A2970 RMK AO2 T11741203
KDWX 200515Z AUTO 28006KT 1 3/4SM -SN OVC016 M17/M20 A2969 RMK AO2 T11711200
KDWX 200455Z AUTO 27003KT 2SM -SN BKN018 OVC024 M17/M20 A2968 RMK AO2 T11701200
KDWX 200435Z AUTO 28003KT 3SM -SN OVC028 M17/M20 A2966 RMK AO2 T11701201
KDWX 200415Z AUTO 31005KT 3SM -SN OVC025 M17/M20 A2965 RMK AO2 T11701200
KDWX 200355Z AUTO 31007KT 3SM -SN OVC023 M17/M20 A2964 RMK AO2 T11701201
KDWX 200335Z AUTO 30008KT 2SM -SN OVC019 M17/M20 A2964 RMK AO2 T11711201
KDWX 200315Z AUTO 27006KT 2 1/2SM -SN OVC021 M17/M20 A2964 RMK AO2 T11681199
KDWX 200255Z AUTO 28008KT 3SM -SN OVC021 M16/M19 A2964 RMK AO2 T11621195
KDWX 200235Z AUTO 24008KT 4SM -SN SCT023 BKN029 OVC042 M15/M18 A2962 RMK AO2 T11521180
KDWX 200215Z AUTO 00000KT 4SM -SN BKN018 BKN022 OVC042 M15/M18 A2959 RMK AO2 T11531181
KDWX 200155Z AUTO 31006KT 1 3/4SM -SN OVC016 M15/M18 A2959 RMK AO2 T11511181
KDWX 200135Z AUTO 32004KT 2 1/2SM -SN OVC023 M15/M18 A2957 RMK AO2 T11541183
KDWX 200115Z AUTO 29007KT 3SM -SN BKN021 OVC027 M15/M18 A2955 RMK AO2 T11521179
KDWX 200035Z AUTO 20005KT 2SM -SN BKN023 OVC030 M15/M17 A2955 RMK AO2 T11461173
KDWX 200015Z AUTO 26005KT 2SM -SN BKN023 OVC030 M14/M17 A2952 RMK AO2 T11391174
KDWX 192355Z AUTO 34006KT 2 1/2SM -SN OVC027 M14/M17 A2951 RMK AO2 T11401175 10105 21228
KDWX 192335Z AUTO 31010KT 1 1/2SM -SN SCT017 OVC025 M14/M18 A2950 RMK AO2 T11441178
KDWX 192315Z AUTO 30015KT 1 1/4SM -SN OVC019 M14/M18 A2949 RMK AO2 T11431178
KDWX 192255Z AUTO 29008G16KT 2 1/2SM -SN SCT019 BKN023 OVC035 M14/M18 A2951 RMK AO2 T11421179
KDWX 192235Z AUTO 29011G18KT 1 1/2SM -SN BKN014 BKN021 OVC029 M14/M17 A2950 RMK AO2 T11361170
KDWX 192215Z AUTO 27008KT 3/4SM -SN OVC014 M13/M16 A2948 RMK AO2 T11311163
KDWX 192155Z AUTO 26008KT 1SM -SN OVC014 M13/M17 A2945 RMK AO2 T11311167
KDWX 192135Z AUTO 28008KT 1 1/4SM -SN BKN016 OVC029 M13/M17 A2946 RMK AO2 T11341171
KDWX 192115Z AUTO 30011KT 1SM -SN BKN007 BKN010 OVC016 M13/M16 A2945 RMK AO2 T11281163
KDWX 192055Z AUTO 29012KT 3/4SM -SN BKN007 OVC012 M12/M15 A2945 RMK AO2 T11191155
KDWX 192035Z AUTO 23007KT 1/2SM SN OVC012 M12/M15 A2943 RMK AO2 T11211155
KDWX 192015Z AUTO 25008KT 3/4SM -SN BKN005 BKN009 OVC013 M12/M16 A2943 RMK AO2 T11241157
KDWX 191955Z AUTO 26006KT 1/4SM SN OVC005 M12/M16 A2939 RMK AO2 T11241159
KDWX 191935Z AUTO 28009KT 3/4SM -SN BKN007 OVC013 M12/M16 A2940 RMK AO2 T11201158
KDWX 191915Z AUTO 25006KT 1/4SM +SN OVC007 M12/M16 A2941 RMK AO2 T11211156
KDWX 191855Z AUTO 25005KT 1/4SM SN OVC007 M12/M16 A2942 RMK AO2 T11231159
KDWX 191835Z AUTO 26005KT 2 1/2SM -SN SCT016 BKN024 OVC029 M12/M16 A2943 RMK AO2 T11241163
KDWX 191815Z AUTO 27008KT 2SM -SN SCT011 BKN022 OVC029 M12/M16 A2943 RMK AO2 T11201162
KDWX 191755Z AUTO 26008KT 7SM -SN SCT021 BKN029 OVC034 M12/M16 A2943 RMK AO2 T11171164 10105 21228
KDWX 191735Z AUTO 29005KT 5SM -SN SCT014 SCT021 OVC026 M13/M16 A2942 RMK AO2 T11261162
KDWX 191715Z AUTO 28008KT 1 1/2SM -SN BKN012 OVC028 M14/M17 A2943 RMK AO2 T11391168
KDWX 191655Z AUTO 26007KT 1 1/2SM -SN BKN006 BKN013 OVC034 M14/M17 A2943 RMK AO2 T11391171
KDWX 191635Z AUTO 33004KT 1/4SM +SN OVC004 M15/M17 A2942 RMK AO2 T11461171
KDWX 191615Z AUTO 00000KT 1SM -SN BKN008 OVC017 M15/M18 A2943 RMK AO2 T11531178
KDWX 191555Z AUTO 15007KT 1 1/4SM -SN BKN008 BKN015 OVC021 M15/M18 A2941 RMK AO2 T11541179
KDWX 191535Z AUTO 14003KT 1/4SM SN OVC006 M15/M18 A2943 RMK AO2 T11551182
KDWX 191515Z AUTO 27006KT 1/4SM SN OVC006 M16/M18 A2945 RMK AO2 T11571183
KDWX 191455Z AUTO 30018KT 1/4SM SN OVC006 M15/M17 A2943 RMK AO2 T11471175
KDWX 191435Z AUTO 28017KT 1/2SM SN OVC010 M12/M14 A2942 RMK AO2 T11231145
KDWX 191415Z AUTO 27010KT 1 1/4SM -SN OVC014 M11/M13 A2940 RMK AO2 T11151133
KDWX 191355Z AUTO 27011KT 2 1/2SM -SN BKN014 OVC021 M11/M13 A2939 RMK AO2 T11141132
KDWX 191335Z AUTO 00000KT 2 1/2SM -SN BKN019 OVC026 M11/M13 A2936 RMK AO2 T11141132
KDWX 191315Z AUTO 25006KT 3SM -SN SCT007 BKN013 OVC025 M11/M13 A2937 RMK AO2 T11101128
KDWX 191255Z AUTO 23008KT 1/2SM -SN BKN004 OVC011 M10/M12 A2939 RMK AO2 T11031119
KDWX 191235Z AUTO 28007KT 1SM SN OVC010 M10/M11 A2938 RMK AO2 T10981115
KDWX 191215Z AUTO 27003KT 1 1/4SM -SN OVC010 M09/M11 A2938 RMK AO2 T10951113
KDWX 191155Z AUTO 27005KT 1 1/2SM -SN BKN010 OVC018 M09/M11 A2939 RMK AO2 T10891106 10105 21228
KDWX 191135Z AUTO 26006KT 7SM -SN SCT010 OVC018 M09/M10 A2940 RMK AO2 T10861103
KDWX 191115Z AUTO 00000KT 7SM -SN OVC020 M08/M10 A2940 RMK AO2 T10841100
KDWX 191055Z AUTO 25004KT 4SM -SN SCT009 SCT013 OVC025 M08/M10 A2940 RMK AO2 T10811096
KDWX 191035Z AUTO 26005KT 1 1/2SM -SN BKN010 BKN018 OVC029 M08/M10 A2941 RMK AO2 T10811097
KDWX 191015Z AUTO 24003KT 10SM -SN OVC036 M08/M09 A2942 RMK AO2 T10761091
KDWX 190955Z AUTO 26004KT 4SM -SN SCT026 BKN036 OVC043 M07/M09 A2942 RMK AO2 T10711088
KDWX 190935Z AUTO 00000KT 4SM -SN SCT022 SCT030 OVC044 M06/M08 A2943 RMK AO2 T10641082
KDWX 190915Z AUTO 25003KT 7SM -SN SCT025 BKN045 OVC055 M06/M08 A2944 RMK AO2 T10611081
KDWX 190855Z AUTO 00000KT 7SM -SN SCT042 OVC055 M06/M08 A2944 RMK AO2 T10651085
KDWX 190835Z AUTO 27003KT 10SM -SN SCT011 SCT023 OVC055 M06/M08 A2944 RMK AO2 T10561082
KDWX 190815Z AUTO 33006KT 10SM BKN009 BKN024 OVC047 M04/M07 A2944 RMK AO2 T10441071
KDWX 190755Z AUTO 31007KT 10SM BKN009 OVC013 M04/M06 A2945 RMK AO2 T10441057
KDWX 190735Z AUTO 00000KT 10SM BKN011 BKN080 OVC090 M05/M06 A2945 RMK AO2 T10481057
KDWX 190715Z AUTO 00000KT 10SM BKN080 M05/M06 A2945 RMK AO2 T10461057
KDWX 190655Z AUTO 00000KT 10SM SCT024 SCT070 BKN095 M04/M05 A2945 RMK AO2 T10401052 401051228
KDWX 190635Z AUTO 25003KT 10SM BKN024 BKN050 BKN070 M03/M05 A2947 RMK AO2 T10321049
KDWX 190615Z AUTO 00000KT 10SM OVC022 M02/M04 A2947 RMK AO2 T10251043
KDWX 190555Z AUTO 25003KT 10SM OVC022 M02/M04 A2948 RMK AO2 T10251040 10105 21228
KDWX 190535Z AUTO 00000KT 10SM OVC022 M02/M04 A2948 RMK AO2 T10251039
KDWX 190515Z AUTO 25003KT 10SM OVC022 M02/M04 A2948 RMK AO2 T10231038
KDWX 190455Z AUTO 22003KT 5SM -SN SCT014 BKN022 OVC043 M02/M04 A2950 RMK AO2 T10171039
KDWX 190435Z AUTO 34006KT 10SM SCT015 BKN025 OVC060 M01/M04 A2949 RMK AO2 T10131037
KDWX 190415Z AUTO 32005KT 10SM -SN SCT025 BKN050 OVC060 M01/M04 A2950 RMK AO2 T10091037
KDWX 190355Z AUTO 33010KT 10SM SCT049 BKN060 OVC070 00/M04 A2949 RMK AO2 T10041037
KDWX 190335Z AUTO 25005KT 10SM SCT060 OVC070 00/M03 A2948 RMK AO2 T00001030
KDWX 190315Z AUTO 35007KT 10SM SCT042 SCT050 OVC070 01/M03 A2948 RMK AO2 T00061028
KDWX 190255Z AUTO 34010KT 10SM SCT042 BKN050 OVC070 01/M03 A2947 RMK AO2 T00071029
KDWX 190235Z AUTO 01014G20KT 10SM BKN075 OVC080 01/M03 A2947 RMK AO2 T00101035
KDWX 190215Z AUTO 01009KT 10SM SCT075 OVC080 03/M04 A2946 RMK AO2 T00251042
KDWX 190155Z AUTO 33012G19KT 290V350 10SM BKN075 OVC090 04/M04 A2945 RMK AO2 T00361041
KDWX 190135Z AUTO 21011G15KT 10SM BKN090 OVC120 05/M04 A2944 RMK AO2 T00461040
KDWX 190115Z AUTO 21011G21KT 10SM SCT070 SCT075 OVC100 05/M05 A2944 RMK AO2 T00531048
KDWX 190055Z AUTO 20014KT 10SM OVC070 06/M06 A2945 RMK AO2 T00631057
KDWX 190035Z AUTO 20023G32KT 10SM SCT070 OVC080 06/M05 A2945 RMK AO2 T00611052
KDWX 190015Z AUTO 21009G20KT 10SM SCT070 OVC080 06/M05 A2945 RMK AO2 T00581047
KDWX 182355Z AUTO 20010G16KT 10SM SCT050 OVC070 06/M04 A2945 RMK AO2 T00581045 10105 21228
KDWX 182335Z AUTO 21013G19KT 10SM SCT050 BKN070 OVC090 06/M05 A2947 RMK AO2 T00631049
KDWX 182315Z AUTO 19015G23KT 10SM OVC090 07/M05 A2946 RMK AO2 T00651051
KDWX 182255Z AUTO 21012G20KT 10SM OVC090 07/M05 A2947 RMK AO2 T00671049
KDWX 182235Z AUTO 21013G21KT 10SM OVC090 07/M05 A2947 RMK AO2 T00681051
KDWX 182215Z AUTO 19011G15KT 10SM BKN090 06/M05 A2948 RMK AO2 T00641054
KDWX 182155Z AUTO 22018G25KT 10SM SCT100 07/M06 A2948 RMK AO2 T00651062
KDWX 182135Z AUTO 23012G25KT 10SM SCT090 07/M06 A2949 RMK AO2 T00671062
KDWX 182115Z AUTO 23015G20KT 10SM BKN080 06/M06 A2950 RMK AO2 T00641061
KDWX 182055Z AUTO 23010G14KT 10SM OVC080 06/M05 A2952 RMK AO2 T00611050
KDWX 182035Z AUTO 22008KT 10SM OVC080 06/M05 A2953 RMK AO2 T00611049
KDWX 182015Z AUTO 22009KT 10SM OVC090 06/M06 A2955 RMK AO2 T00601056
KDWX 181955Z AUTO 23013G24KT 10SM SCT090 06/M06 A2955 RMK AO2 T00621061